DAL2030 KDTW-KDCA
Flight info
| Callsign | DAL2030 |
|---|---|
| Flight time | 0h 58m |
| Altitude | 39000 |
| Route | LIDDS4 GRIVY BUCKO FRDMM6 |
| Aircraft | A319/M-SDE3FGHIRWY/LB1 |
Departure
| Time | 2026-04-25 00:15 |
|---|---|
| Airport | Detroit Metropolitan Wayne County Airport (KDTW) |
Arrival
| Time | 2026-04-25 01:14 |
|---|---|
| Airport | Ronald Reagan Washington National Airport (KDCA) |
| Time | Latitude | Longitude | Altitude | Speed | Heading |
|---|---|---|---|---|---|
| 2026-04-24 23:19 | 42.20597 | -83.35923 | 648 ft | 0 kts | 298° |
| 2026-04-25 00:01 | 42.20589 | -83.35901 | 648 ft | 4 kts | 298° |
| 2026-04-25 00:01 | 42.20578 | -83.35876 | 649 ft | 4 kts | 296° |
| 2026-04-25 00:02 | 42.20574 | -83.35849 | 651 ft | 4 kts | 228° |
| 2026-04-25 00:02 | 42.20594 | -83.35830 | 648 ft | 3 kts | 208° |
| 2026-04-25 00:02 | 42.20597 | -83.35828 | 649 ft | 0 kts | 208° |
| 2026-04-25 00:05 | 42.20594 | -83.35826 | 649 ft | 2 kts | 173° |
| 2026-04-25 00:05 | 42.20546 | -83.35815 | 649 ft | 12 kts | 190° |
| 2026-04-25 00:05 | 42.20443 | -83.35889 | 648 ft | 20 kts | 208° |
| 2026-04-25 00:05 | 42.20326 | -83.35975 | 648 ft | 18 kts | 208° |
| 2026-04-25 00:06 | 42.20212 | -83.36016 | 648 ft | 12 kts | 178° |
| 2026-04-25 00:06 | 42.20163 | -83.35965 | 648 ft | 10 kts | 91° |
| 2026-04-25 00:06 | 42.20166 | -83.35855 | 648 ft | 14 kts | 89° |
| 2026-04-25 00:06 | 42.20168 | -83.35704 | 648 ft | 18 kts | 89° |
| 2026-04-25 00:07 | 42.20171 | -83.35526 | 648 ft | 20 kts | 89° |
| 2026-04-25 00:07 | 42.20175 | -83.35333 | 648 ft | 20 kts | 89° |
| 2026-04-25 00:07 | 42.20198 | -83.35188 | 648 ft | 13 kts | 33° |
| 2026-04-25 00:07 | 42.20284 | -83.35125 | 648 ft | 16 kts | 28° |
| 2026-04-25 00:08 | 42.20396 | -83.35042 | 648 ft | 19 kts | 28° |
| 2026-04-25 00:08 | 42.20513 | -83.35018 | 647 ft | 14 kts | 345° |
| 2026-04-25 00:08 | 42.20603 | -83.34971 | 647 ft | 17 kts | 28° |
| 2026-04-25 00:08 | 42.20736 | -83.34872 | 649 ft | 26 kts | 29° |
| 2026-04-25 00:09 | 42.20844 | -83.34769 | 647 ft | 13 kts | 72° |
| 2026-04-25 00:09 | 42.20889 | -83.34678 | 647 ft | 11 kts | 30° |
| 2026-04-25 00:09 | 42.20978 | -83.34614 | 647 ft | 19 kts | 29° |
| 2026-04-25 00:09 | 42.21125 | -83.34505 | 647 ft | 26 kts | 29° |
| 2026-04-25 00:10 | 42.21273 | -83.34395 | 649 ft | 23 kts | 29° |
| 2026-04-25 00:10 | 42.21403 | -83.34300 | 647 ft | 20 kts | 28° |
| 2026-04-25 00:10 | 42.21516 | -83.34216 | 647 ft | 17 kts | 29° |
| 2026-04-25 00:10 | 42.21616 | -83.34165 | 647 ft | 14 kts | 2° |
| 2026-04-25 00:11 | 42.21715 | -83.34167 | 645 ft | 15 kts | 359° |
| 2026-04-25 00:11 | 42.21829 | -83.34169 | 646 ft | 16 kts | 1° |
| 2026-04-25 00:11 | 42.21923 | -83.34112 | 647 ft | 17 kts | 28° |
| 2026-04-25 00:11 | 42.22057 | -83.34013 | 647 ft | 25 kts | 28° |
| 2026-04-25 00:12 | 42.22216 | -83.33897 | 647 ft | 25 kts | 28° |
| 2026-04-25 00:12 | 42.22356 | -83.33795 | 648 ft | 21 kts | 28° |
| 2026-04-25 00:12 | 42.22474 | -83.33709 | 647 ft | 18 kts | 28° |
| 2026-04-25 00:12 | 42.22575 | -83.33635 | 647 ft | 15 kts | 28° |
| 2026-04-25 00:13 | 42.22657 | -83.33574 | 648 ft | 12 kts | 28° |
| 2026-04-25 00:13 | 42.22725 | -83.33525 | 647 ft | 10 kts | 28° |
| 2026-04-25 00:13 | 42.22779 | -83.33525 | 646 ft | 9 kts | 321° |
| 2026-04-25 00:13 | 42.22811 | -83.33599 | 645 ft | 5 kts | 296° |
| 2026-04-25 00:14 | 42.22806 | -83.33626 | 645 ft | 2 kts | 242° |
| 2026-04-25 00:14 | 42.22791 | -83.33643 | 646 ft | 2 kts | 210° |
| 2026-04-25 00:14 | 42.22781 | -83.33650 | 645 ft | 5 kts | 209° |
| 2026-04-25 00:14 | 42.22506 | -83.33853 | 649 ft | 84 kts | 208° |
| 2026-04-25 00:15 | 42.21793 | -83.34379 | 648 ft | 147 kts | 208° |
| 2026-04-25 00:15 | 42.20817 | -83.35089 | 1095 ft | 158 kts | 206° |
| 2026-04-25 00:15 | 42.19858 | -83.35795 | 1813 ft | 156 kts | 210° |
| 2026-04-25 00:15 | 42.18829 | -83.36275 | 2493 ft | 162 kts | 191° |
| 2026-04-25 00:16 | 42.17618 | -83.36265 | 2872 ft | 186 kts | 181° |
| 2026-04-25 00:16 | 42.16244 | -83.36189 | 3206 ft | 211 kts | 181° |
| 2026-04-25 00:16 | 42.14705 | -83.36105 | 3658 ft | 236 kts | 181° |
| 2026-04-25 00:16 | 42.12980 | -83.36012 | 4231 ft | 258 kts | 181° |
| 2026-04-25 00:17 | 42.11164 | -83.35910 | 5140 ft | 264 kts | 181° |
| 2026-04-25 00:17 | 42.09315 | -83.35799 | 6166 ft | 267 kts | 182° |
| 2026-04-25 00:17 | 42.07457 | -83.35686 | 7146 ft | 269 kts | 182° |
| 2026-04-25 00:17 | 42.05601 | -83.35148 | 8103 ft | 282 kts | 161° |
| 2026-04-25 00:18 | 42.03998 | -83.33545 | 9068 ft | 297 kts | 135° |
| 2026-04-25 00:18 | 42.03039 | -83.31023 | 9984 ft | 313 kts | 108° |
| 2026-04-25 00:18 | 42.02606 | -83.28103 | 10600 ft | 329 kts | 104° |
| 2026-04-25 00:18 | 42.02167 | -83.24986 | 11028 ft | 348 kts | 104° |
| 2026-04-25 00:19 | 42.01712 | -83.21752 | 11769 ft | 355 kts | 103° |
| 2026-04-25 00:19 | 42.01516 | -83.18411 | 12577 ft | 363 kts | 91° |
| 2026-04-25 00:19 | 42.01811 | -83.15007 | 13390 ft | 369 kts | 81° |
| 2026-04-25 00:19 | 42.02296 | -83.11609 | 14208 ft | 370 kts | 81° |
| 2026-04-25 00:20 | 42.02772 | -83.08191 | 14948 ft | 373 kts | 81° |
| 2026-04-25 00:20 | 42.03236 | -83.04738 | 15651 ft | 377 kts | 81° |
| 2026-04-25 00:20 | 42.03696 | -83.01239 | 16339 ft | 381 kts | 81° |
| 2026-04-25 00:20 | 42.04158 | -82.97703 | 17029 ft | 386 kts | 81° |
| 2026-04-25 00:21 | 42.04628 | -82.94138 | 17719 ft | 390 kts | 81° |
| 2026-04-25 00:21 | 42.05107 | -82.90531 | 18362 ft | 394 kts | 81° |
| 2026-04-25 00:21 | 42.05585 | -82.86930 | 18940 ft | 398 kts | 81° |
| 2026-04-25 00:21 | 42.06074 | -82.83245 | 19522 ft | 402 kts | 81° |
| 2026-04-25 00:22 | 42.06565 | -82.79531 | 20108 ft | 405 kts | 81° |
| 2026-04-25 00:22 | 42.07011 | -82.75761 | 20686 ft | 409 kts | 85° |
| 2026-04-25 00:22 | 42.06966 | -82.71934 | 21228 ft | 412 kts | 98° |
| 2026-04-25 00:22 | 42.06370 | -82.68146 | 21779 ft | 415 kts | 105° |
| 2026-04-25 00:23 | 42.05665 | -82.64359 | 22336 ft | 419 kts | 105° |
| 2026-04-25 00:23 | 42.04951 | -82.60536 | 22883 ft | 423 kts | 105° |
| 2026-04-25 00:23 | 42.04229 | -82.56685 | 23416 ft | 427 kts | 105° |
| 2026-04-25 00:23 | 42.03497 | -82.52802 | 23874 ft | 431 kts | 105° |
| 2026-04-25 00:24 | 42.02759 | -82.48876 | 24307 ft | 434 kts | 105° |
| 2026-04-25 00:24 | 42.01719 | -82.45068 | 24741 ft | 434 kts | 120° |
| 2026-04-25 00:24 | 41.99968 | -82.41790 | 25169 ft | 432 kts | 136° |
| 2026-04-25 00:24 | 41.97836 | -82.38914 | 25606 ft | 434 kts | 138° |
| 2026-04-25 00:25 | 41.95702 | -82.36081 | 25969 ft | 439 kts | 138° |
| 2026-04-25 00:25 | 41.93515 | -82.33191 | 26356 ft | 442 kts | 138° |
| 2026-04-25 00:25 | 41.91314 | -82.30285 | 26774 ft | 445 kts | 138° |
| 2026-04-25 00:25 | 41.89098 | -82.27358 | 27188 ft | 448 kts | 138° |
| 2026-04-25 00:26 | 41.86874 | -82.24413 | 27611 ft | 451 kts | 137° |
| 2026-04-25 00:26 | 41.84639 | -82.21449 | 28031 ft | 453 kts | 137° |
| 2026-04-25 00:26 | 41.82389 | -82.18466 | 28447 ft | 456 kts | 137° |
| 2026-04-25 00:26 | 41.80120 | -82.15467 | 28859 ft | 458 kts | 138° |
| 2026-04-25 00:27 | 41.77839 | -82.12462 | 29261 ft | 461 kts | 138° |
| 2026-04-25 00:27 | 41.75544 | -82.09449 | 29653 ft | 464 kts | 138° |
| 2026-04-25 00:27 | 41.73230 | -82.06420 | 30020 ft | 466 kts | 138° |
| 2026-04-25 00:27 | 41.70905 | -82.03375 | 30337 ft | 469 kts | 138° |
| 2026-04-25 00:28 | 41.68571 | -82.00315 | 30651 ft | 471 kts | 138° |
| 2026-04-25 00:28 | 41.66223 | -81.97231 | 30953 ft | 474 kts | 138° |
| 2026-04-25 00:28 | 41.63895 | -81.94172 | 31258 ft | 476 kts | 138° |
| 2026-04-25 00:28 | 41.61528 | -81.91069 | 31556 ft | 479 kts | 138° |
| 2026-04-25 00:29 | 41.59139 | -81.87942 | 31852 ft | 481 kts | 138° |
| 2026-04-25 00:29 | 41.56740 | -81.84806 | 32142 ft | 484 kts | 138° |
| 2026-04-25 00:29 | 41.54331 | -81.81661 | 32491 ft | 484 kts | 138° |
| 2026-04-25 00:29 | 41.51927 | -81.78523 | 32908 ft | 484 kts | 138° |
| 2026-04-25 00:30 | 41.49522 | -81.75391 | 33318 ft | 483 kts | 139° |
| 2026-04-25 00:30 | 41.47114 | -81.72260 | 33694 ft | 483 kts | 139° |
| 2026-04-25 00:30 | 41.44642 | -81.69238 | 34048 ft | 480 kts | 146° |
| 2026-04-25 00:30 | 41.41907 | -81.66706 | 34392 ft | 478 kts | 149° |
| 2026-04-25 00:31 | 41.39147 | -81.64215 | 34735 ft | 478 kts | 149° |
| 2026-04-25 00:31 | 41.36390 | -81.61737 | 35039 ft | 479 kts | 149° |
| 2026-04-25 00:31 | 41.33624 | -81.59257 | 35372 ft | 478 kts | 149° |
| 2026-04-25 00:31 | 41.30865 | -81.56787 | 35696 ft | 478 kts | 149° |
| 2026-04-25 00:32 | 41.28141 | -81.54350 | 36041 ft | 477 kts | 149° |
| 2026-04-25 00:32 | 41.25391 | -81.51889 | 36377 ft | 477 kts | 149° |
| 2026-04-25 00:32 | 41.22641 | -81.49426 | 36700 ft | 476 kts | 149° |
| 2026-04-25 00:32 | 41.20791 | -81.47769 | 36909 ft | 475 kts | 149° |
| 2026-04-25 00:33 | 41.17163 | -81.44524 | 37333 ft | 474 kts | 149° |
| 2026-04-25 00:33 | 41.14425 | -81.42079 | 37646 ft | 474 kts | 149° |
| 2026-04-25 00:33 | 41.11695 | -81.39645 | 37949 ft | 473 kts | 149° |
| 2026-04-25 00:33 | 41.08964 | -81.37214 | 38245 ft | 472 kts | 149° |
| 2026-04-25 00:34 | 41.07159 | -81.35609 | 38436 ft | 472 kts | 149° |
| 2026-04-25 00:34 | 41.04432 | -81.33182 | 38677 ft | 471 kts | 149° |
| 2026-04-25 00:34 | 41.01709 | -81.30760 | 38783 ft | 472 kts | 149° |
| 2026-04-25 00:34 | 40.98985 | -81.28345 | 38841 ft | 470 kts | 149° |
| 2026-04-25 00:35 | 40.93539 | -81.23532 | 38843 ft | 471 kts | 149° |
| 2026-04-25 00:35 | 40.88087 | -81.18710 | 38846 ft | 472 kts | 149° |
| 2026-04-25 00:36 | 40.82630 | -81.13896 | 38848 ft | 472 kts | 149° |
| 2026-04-25 00:36 | 40.77169 | -81.09082 | 38839 ft | 472 kts | 149° |
| 2026-04-25 00:37 | 40.71699 | -81.04274 | 38849 ft | 472 kts | 149° |
| 2026-04-25 00:37 | 40.66229 | -80.99480 | 38856 ft | 473 kts | 149° |
| 2026-04-25 00:38 | 40.60781 | -80.94718 | 38855 ft | 473 kts | 149° |
| 2026-04-25 00:38 | 40.55294 | -80.89934 | 38868 ft | 473 kts | 148° |
| 2026-04-25 00:39 | 40.49801 | -80.85142 | 38847 ft | 475 kts | 148° |
| 2026-04-25 00:39 | 40.44286 | -80.80341 | 38848 ft | 475 kts | 148° |
| 2026-04-25 00:40 | 40.38766 | -80.75551 | 38853 ft | 476 kts | 148° |
| 2026-04-25 00:40 | 40.33238 | -80.70758 | 38856 ft | 476 kts | 148° |
| 2026-04-25 00:41 | 40.27711 | -80.65972 | 38859 ft | 477 kts | 148° |
| 2026-04-25 00:41 | 40.22167 | -80.61198 | 38867 ft | 477 kts | 148° |
| 2026-04-25 00:42 | 40.16624 | -80.56423 | 38879 ft | 477 kts | 148° |
| 2026-04-25 00:42 | 40.11074 | -80.51648 | 38890 ft | 477 kts | 148° |
| 2026-04-25 00:43 | 40.05476 | -80.46844 | 38484 ft | 492 kts | 148° |
| 2026-04-25 00:43 | 40.02591 | -80.44376 | 38079 ft | 498 kts | 148° |
| 2026-04-25 00:43 | 39.99683 | -80.41892 | 37767 ft | 501 kts | 148° |
| 2026-04-25 00:44 | 39.96764 | -80.39398 | 37490 ft | 503 kts | 148° |
| 2026-04-25 00:44 | 39.93873 | -80.36930 | 37224 ft | 504 kts | 148° |
| 2026-04-25 00:44 | 39.90904 | -80.34393 | 36950 ft | 503 kts | 148° |
| 2026-04-25 00:44 | 39.88024 | -80.31937 | 36680 ft | 502 kts | 148° |
| 2026-04-25 00:45 | 39.85108 | -80.29453 | 36235 ft | 498 kts | 148° |
| 2026-04-25 00:45 | 39.82224 | -80.27001 | 35713 ft | 493 kts | 147° |
| 2026-04-25 00:45 | 39.79369 | -80.24576 | 35197 ft | 488 kts | 147° |
| 2026-04-25 00:45 | 39.76536 | -80.22175 | 34671 ft | 485 kts | 148° |
| 2026-04-25 00:46 | 39.73718 | -80.19788 | 34155 ft | 481 kts | 147° |
| 2026-04-25 00:46 | 39.70925 | -80.17424 | 33611 ft | 478 kts | 147° |
| 2026-04-25 00:46 | 39.65391 | -80.12745 | 32497 ft | 471 kts | 148° |
| 2026-04-25 00:47 | 39.62659 | -80.10439 | 31986 ft | 467 kts | 148° |
| 2026-04-25 00:47 | 39.59950 | -80.08152 | 31481 ft | 462 kts | 148° |
| 2026-04-25 00:47 | 39.57269 | -80.05890 | 31034 ft | 458 kts | 148° |
| 2026-04-25 00:47 | 39.54609 | -80.03647 | 30838 ft | 456 kts | 148° |
| 2026-04-25 00:48 | 39.51956 | -80.01411 | 30875 ft | 456 kts | 148° |
| 2026-04-25 00:48 | 39.46639 | -79.96940 | 30871 ft | 453 kts | 148° |
| 2026-04-25 00:49 | 39.41392 | -79.92538 | 30870 ft | 448 kts | 148° |
| 2026-04-25 00:49 | 39.36159 | -79.88170 | 30856 ft | 447 kts | 148° |
| 2026-04-25 00:49 | 39.33740 | -79.85729 | 30879 ft | 447 kts | 136° |
| 2026-04-25 00:50 | 39.31621 | -79.82699 | 30877 ft | 452 kts | 127° |
| 2026-04-25 00:50 | 39.29942 | -79.79298 | 30812 ft | 463 kts | 115° |
| 2026-04-25 00:50 | 39.28848 | -79.75364 | 30539 ft | 468 kts | 99° |
| 2026-04-25 00:50 | 39.28444 | -79.71198 | 30353 ft | 468 kts | 92° |
| 2026-04-25 00:51 | 39.28150 | -79.67009 | 30136 ft | 468 kts | 93° |
| 2026-04-25 00:51 | 39.27843 | -79.62828 | 29909 ft | 468 kts | 93° |
| 2026-04-25 00:51 | 39.27520 | -79.58661 | 29677 ft | 466 kts | 94° |
| 2026-04-25 00:51 | 39.27187 | -79.54510 | 29470 ft | 465 kts | 94° |
| 2026-04-25 00:52 | 39.26848 | -79.50367 | 29260 ft | 463 kts | 94° |
| 2026-04-25 00:52 | 39.26508 | -79.46242 | 29051 ft | 462 kts | 94° |
| 2026-04-25 00:52 | 39.26168 | -79.42124 | 28850 ft | 460 kts | 94° |
| 2026-04-25 00:52 | 39.25828 | -79.38027 | 28629 ft | 458 kts | 94° |
| 2026-04-25 00:53 | 39.25490 | -79.33941 | 28425 ft | 457 kts | 94° |
| 2026-04-25 00:53 | 39.25152 | -79.29866 | 28217 ft | 455 kts | 94° |
| 2026-04-25 00:53 | 39.24815 | -79.25817 | 28003 ft | 454 kts | 94° |
| 2026-04-25 00:53 | 39.24480 | -79.21777 | 27772 ft | 452 kts | 94° |
| 2026-04-25 00:54 | 39.24144 | -79.17755 | 27457 ft | 449 kts | 94° |
| 2026-04-25 00:54 | 39.23808 | -79.13803 | 27174 ft | 447 kts | 94° |
| 2026-04-25 00:54 | 39.23466 | -79.09825 | 26871 ft | 445 kts | 94° |
| 2026-04-25 00:54 | 39.23124 | -79.05875 | 26583 ft | 443 kts | 94° |
| 2026-04-25 00:55 | 39.22783 | -79.01933 | 26291 ft | 440 kts | 94° |
| 2026-04-25 00:55 | 39.22443 | -78.98024 | 26001 ft | 438 kts | 94° |
| 2026-04-25 00:55 | 39.22100 | -78.94136 | 25601 ft | 437 kts | 94° |
| 2026-04-25 00:55 | 39.21741 | -78.90257 | 24963 ft | 433 kts | 94° |
| 2026-04-25 00:56 | 39.21370 | -78.86433 | 24404 ft | 427 kts | 94° |
| 2026-04-25 00:56 | 39.20996 | -78.82667 | 23836 ft | 422 kts | 95° |
| 2026-04-25 00:56 | 39.20619 | -78.78918 | 23244 ft | 421 kts | 95° |
| 2026-04-25 00:56 | 39.20245 | -78.75177 | 22652 ft | 419 kts | 95° |
| 2026-04-25 00:57 | 39.19878 | -78.71476 | 22208 ft | 411 kts | 95° |
| 2026-04-25 00:57 | 39.19521 | -78.67835 | 21555 ft | 408 kts | 94° |
| 2026-04-25 00:57 | 39.19171 | -78.64212 | 21018 ft | 406 kts | 94° |
| 2026-04-25 00:57 | 39.18822 | -78.60617 | 20636 ft | 400 kts | 94° |
| 2026-04-25 00:58 | 39.18480 | -78.57128 | 20213 ft | 393 kts | 94° |
| 2026-04-25 00:58 | 39.18134 | -78.53624 | 19523 ft | 387 kts | 95° |
| 2026-04-25 00:58 | 39.17798 | -78.50236 | 18929 ft | 385 kts | 95° |
| 2026-04-25 00:58 | 39.17456 | -78.46822 | 18429 ft | 383 kts | 95° |
| 2026-04-25 00:59 | 39.17115 | -78.43426 | 18006 ft | 380 kts | 95° |
| 2026-04-25 00:59 | 39.16776 | -78.40056 | 17482 ft | 378 kts | 95° |
| 2026-04-25 00:59 | 39.16389 | -78.36720 | 16984 ft | 376 kts | 100° |
| 2026-04-25 00:59 | 39.15649 | -78.33490 | 16653 ft | 376 kts | 106° |
| 2026-04-25 01:00 | 39.14846 | -78.30290 | 16333 ft | 375 kts | 106° |
| 2026-04-25 01:00 | 39.14054 | -78.27096 | 16011 ft | 374 kts | 106° |
| 2026-04-25 01:00 | 39.13264 | -78.23903 | 15685 ft | 373 kts | 106° |
| 2026-04-25 01:00 | 39.12480 | -78.20733 | 15363 ft | 371 kts | 106° |
| 2026-04-25 01:01 | 39.11696 | -78.17572 | 15054 ft | 370 kts | 107° |
| 2026-04-25 01:01 | 39.10913 | -78.14422 | 14731 ft | 369 kts | 107° |
| 2026-04-25 01:01 | 39.10129 | -78.11281 | 14414 ft | 367 kts | 107° |
| 2026-04-25 01:01 | 39.09340 | -78.08152 | 14092 ft | 366 kts | 107° |
| 2026-04-25 01:02 | 39.08558 | -78.05089 | 13781 ft | 365 kts | 108° |
| 2026-04-25 01:02 | 39.07764 | -78.01989 | 13435 ft | 364 kts | 108° |
| 2026-04-25 01:02 | 39.06973 | -77.98910 | 13116 ft | 362 kts | 108° |
| 2026-04-25 01:02 | 39.06184 | -77.95841 | 12801 ft | 360 kts | 108° |
| 2026-04-25 01:03 | 39.05401 | -77.92786 | 12485 ft | 359 kts | 107° |
| 2026-04-25 01:03 | 39.04620 | -77.89737 | 12167 ft | 356 kts | 107° |
| 2026-04-25 01:03 | 39.03853 | -77.86752 | 11998 ft | 343 kts | 107° |
| 2026-04-25 01:03 | 39.03126 | -77.83927 | 11858 ft | 331 kts | 107° |
| 2026-04-25 01:04 | 39.02415 | -77.81169 | 11650 ft | 321 kts | 107° |
| 2026-04-25 01:04 | 39.01717 | -77.78457 | 11298 ft | 317 kts | 108° |
| 2026-04-25 01:04 | 39.01024 | -77.75773 | 11030 ft | 316 kts | 108° |
| 2026-04-25 01:04 | 39.00333 | -77.73100 | 10768 ft | 314 kts | 108° |
| 2026-04-25 01:05 | 38.99642 | -77.70440 | 10509 ft | 313 kts | 108° |
| 2026-04-25 01:05 | 38.98952 | -77.67793 | 10256 ft | 311 kts | 108° |
| 2026-04-25 01:05 | 38.98266 | -77.65155 | 9999 ft | 310 kts | 108° |
| 2026-04-25 01:05 | 38.97543 | -77.62549 | 9596 ft | 310 kts | 110° |
| 2026-04-25 01:06 | 38.96788 | -77.59986 | 9379 ft | 301 kts | 111° |
| 2026-04-25 01:06 | 38.96045 | -77.57512 | 9053 ft | 294 kts | 111° |
| 2026-04-25 01:06 | 38.95315 | -77.55075 | 8518 ft | 291 kts | 109° |
| 2026-04-25 01:06 | 38.94883 | -77.52546 | 8125 ft | 290 kts | 92° |
| 2026-04-25 01:07 | 38.95027 | -77.49997 | 7995 ft | 285 kts | 75° |
| 2026-04-25 01:07 | 38.95677 | -77.47606 | 8006 ft | 284 kts | 64° |
| 2026-04-25 01:07 | 38.96457 | -77.45274 | 8007 ft | 284 kts | 64° |
| 2026-04-25 01:07 | 38.97236 | -77.42939 | 8007 ft | 284 kts | 64° |
| 2026-04-25 01:08 | 38.98015 | -77.40600 | 8008 ft | 284 kts | 64° |
| 2026-04-25 01:08 | 38.98794 | -77.38263 | 8007 ft | 284 kts | 64° |
| 2026-04-25 01:08 | 38.99575 | -77.35928 | 8008 ft | 284 kts | 64° |
| 2026-04-25 01:08 | 39.00351 | -77.33604 | 8008 ft | 284 kts | 64° |
| 2026-04-25 01:09 | 39.01131 | -77.31264 | 7975 ft | 283 kts | 64° |
| 2026-04-25 01:09 | 39.01892 | -77.28980 | 7462 ft | 280 kts | 64° |
| 2026-04-25 01:09 | 39.02583 | -77.26639 | 6910 ft | 281 kts | 77° |
| 2026-04-25 01:09 | 39.02571 | -77.24171 | 6593 ft | 271 kts | 103° |
| 2026-04-25 01:10 | 39.01829 | -77.22020 | 6315 ft | 259 kts | 128° |
| 2026-04-25 01:10 | 39.00603 | -77.20371 | 5855 ft | 254 kts | 139° |
| 2026-04-25 01:10 | 38.99319 | -77.18822 | 5404 ft | 251 kts | 139° |
| 2026-04-25 01:10 | 38.98094 | -77.17342 | 5000 ft | 237 kts | 139° |
| 2026-04-25 01:11 | 38.96903 | -77.15869 | 4302 ft | 238 kts | 138° |
| 2026-04-25 01:11 | 38.95705 | -77.14394 | 3567 ft | 239 kts | 140° |
| 2026-04-25 01:11 | 38.94469 | -77.12984 | 2917 ft | 234 kts | 142° |
| 2026-04-25 01:11 | 38.93272 | -77.11663 | 2455 ft | 220 kts | 143° |
| 2026-04-25 01:12 | 38.92070 | -77.10493 | 1974 ft | 215 kts | 148° |
| 2026-04-25 01:12 | 38.90957 | -77.09282 | 1642 ft | 207 kts | 126° |
| 2026-04-25 01:12 | 38.90360 | -77.07646 | 1406 ft | 198 kts | 115° |
| 2026-04-25 01:12 | 38.89708 | -77.06183 | 1156 ft | 182 kts | 135° |
| 2026-04-25 01:13 | 38.88801 | -77.05149 | 908 ft | 167 kts | 141° |
| 2026-04-25 01:13 | 38.87943 | -77.04270 | 587 ft | 151 kts | 146° |
| 2026-04-25 01:13 | 38.86990 | -77.03934 | 302 ft | 140 kts | 180° |
| 2026-04-25 01:13 | 38.86046 | -77.03865 | 49 ft | 132 kts | 176° |
| 2026-04-25 01:14 | 38.85267 | -77.03789 | 25 ft | 77 kts | 176° |
| 2026-04-25 01:14 | 38.84971 | -77.03759 | 24 ft | 20 kts | 176° |
| 2026-04-25 01:14 | 38.84882 | -77.03813 | 23 ft | 11 kts | 249° |
| 2026-04-25 01:14 | 38.84880 | -77.03845 | 23 ft | 0 kts | 265° |
| 2026-04-25 01:16 | 38.84879 | -77.03859 | 24 ft | 5 kts | 265° |
| 2026-04-25 01:16 | 38.84876 | -77.03919 | 24 ft | 8 kts | 267° |
| 2026-04-25 01:16 | 38.84922 | -77.03954 | 24 ft | 12 kts | 355° |
| 2026-04-25 01:17 | 38.85017 | -77.03963 | 24 ft | 14 kts | 354° |
| 2026-04-25 01:17 | 38.85085 | -77.03971 | 24 ft | 15 kts | 356° |
| 2026-04-25 01:17 | 38.85188 | -77.03980 | 24 ft | 9 kts | 355° |
| 2026-04-25 01:17 | 38.85243 | -77.03990 | 24 ft | 4 kts | 320° |
| 2026-04-25 01:18 | 38.85240 | -77.04024 | 24 ft | 4 kts | 251° |
| 2026-04-25 01:18 | 38.85236 | -77.04051 | 26 ft | 3 kts | 261° |
| 2026-04-25 01:18 | 38.85235 | -77.04061 | 24 ft | 0 kts | 261° |